Kuurne, Belgium

10:17 AM CET on February 01, 2015 (GMT +0100)
IVLAAMSG8 | Change Station
CLOSE
Current Station
Personal Weather Station
Location: Izegem, West-Vlaanderen
Elevation: 59 ft
Nearby Weather Stations

Elev 59 ft 50.91 °N, 3.20 °E | Updated 6 seconds ago

Rain
Rain
37.9 °F
Feels Like 31 °F
N
9.2
Wind Variable Wind from WNW
Gusts 9.2 mph

Today
High -- | Low -- °F
--% Chance of Precip.
Yesterday
High -- | Low -- °F
Precip. -- in
8:23 AM 5:37 PM
Waxing Gibbous, 94% visible
Pressure 29.27 in
Visibility 6.2 miles
Clouds Scattered Clouds 900 ft
Overcast 2000 ft
Windchill 31 °F
Dew Point 37 °F
Humidity 96%
Rainfall 0.22 in
Snow Depth Not available.
UV 0.0 out of 12
Pollen Not available.
Air Quality Not available.
Flu Activity Not available.
METAR LFQQ 010900Z 26013KT 9999 SCT009 OVC020 02/01 Q0991 R08/290191 TEMPO 5000 SHRASN BKN008

More Conditions Fewer Conditions

Pressure 29.27 in
Visibility 6.2 miles
Clouds Scattered Clouds 900 ft
Overcast 2000 ft
Windchill 31 °F
Dew Point 37 °F
Humidity 96%
Rainfall 0.22 in
Snow Depth Not available.
UV 0.0 out of 12
Pollen Not available.
Air Quality Not available.
Flu Activity Not available.
METAR LFQQ 010900Z 26013KT 9999 SCT009 OVC020 02/01 Q0991 R08/290191 TEMPO 5000 SHRASN BKN008

More Conditions Fewer Conditions

10-Day Weather Forecast

Almanac

Astronomy

Feb. 01, 2015 Rise Set
Actual Time
Civil Twilight
Nautical Twilight
Astronomical Twilight
Moon
Length of Visible Light
Length of Day
Tomorrow will be .
, % of the Moon is Illuminated

Today's Extremes

Country Highs Country Lows

Community

WunderPhotos

Upload Photos

1,792,338 photos uploaded!

WunderBlogs® & News

Nearby

Air Quality

  Air Quality AQ Index Pollutant
Not available.

Snow Depth

Station Depth Elevation

Earthquake Activity

City Distance Mag. Time & Date
Minimum magnitude displayed is 2.5.

Coastal Water Temperatures

Place Temperature

Nearby Weather Stations